sensor_id;sensor_type;location;lat;lon;timestamp;P1;durP1;ratioP1;P2;durP2;ratioP2
59516;SDS011;45342;42.662;27.718;2023-03-31T00:01:38;6.05;;;4.07;;
59516;SDS011;45342;42.662;27.718;2023-03-31T00:04:07;5.65;;;4.30;;
59516;SDS011;45342;42.662;27.718;2023-03-31T00:06:39;7.00;;;4.43;;
59516;SDS011;45342;42.662;27.718;2023-03-31T00:09:15;8.35;;;4.50;;
59516;SDS011;45342;42.662;27.718;2023-03-31T00:11:46;6.35;;;4.20;;
59516;SDS011;45342;42.662;27.718;2023-03-31T00:14:32;6.65;;;4.22;;
59516;SDS011;45342;42.662;27.718;2023-03-31T00:19:28;6.45;;;4.10;;
59516;SDS011;45342;42.662;27.718;2023-03-31T00:21:58;6.82;;;4.07;;
59516;SDS011;45342;42.662;27.718;2023-03-31T00:24:28;7.13;;;4.60;;
59516;SDS011;45342;42.662;27.718;2023-03-31T00:27:03;6.60;;;4.22;;
59516;SDS011;45342;42.662;27.718;2023-03-31T00:29:30;7.15;;;4.45;;
59516;SDS011;45342;42.662;27.718;2023-03-31T00:31:59;6.85;;;4.88;;
59516;SDS011;45342;42.662;27.718;2023-03-31T00:36:54;6.05;;;4.40;;
59516;SDS011;45342;42.662;27.718;2023-03-31T00:39:22;6.13;;;4.35;;
59516;SDS011;45342;42.662;27.718;2023-03-31T00:41:54;7.05;;;4.50;;
59516;SDS011;45342;42.662;27.718;2023-03-31T00:44:28;6.10;;;4.40;;
59516;SDS011;45342;42.662;27.718;2023-03-31T00:49:29;6.00;;;4.40;;
59516;SDS011;45342;42.662;27.718;2023-03-31T00:52:14;6.35;;;4.20;;
59516;SDS011;45342;42.662;27.718;2023-03-31T00:54:50;6.65;;;3.90;;
59516;SDS011;45342;42.662;27.718;2023-03-31T00:57:21;7.40;;;4.07;;
59516;SDS011;45342;42.662;27.718;2023-03-31T00:59:52;6.00;;;4.00;;
59516;SDS011;45342;42.662;27.718;2023-03-31T01:02:21;5.68;;;3.70;;
59516;SDS011;45342;42.662;27.718;2023-03-31T01:04:51;6.53;;;4.18;;
59516;SDS011;45342;42.662;27.718;2023-03-31T01:09:58;6.57;;;3.92;;
59516;SDS011;45342;42.662;27.718;2023-03-31T01:12:25;6.75;;;4.15;;
59516;SDS011;45342;42.662;27.718;2023-03-31T01:28:43;5.95;;;3.90;;
59516;SDS011;45342;42.662;27.718;2023-03-31T01:42:38;5.78;;;3.88;;
59516;SDS011;45342;42.662;27.718;2023-03-31T01:48:16;5.68;;;3.88;;
59516;SDS011;45342;42.662;27.718;2023-03-31T01:50:50;5.43;;;3.80;;
59516;SDS011;45342;42.662;27.718;2023-03-31T01:56:13;6.13;;;3.42;;
59516;SDS011;45342;42.662;27.718;2023-03-31T01:58:43;4.53;;;3.58;;
59516;SDS011;45342;42.662;27.718;2023-03-31T02:01:21;5.72;;;3.53;;
59516;SDS011;45342;42.662;27.718;2023-03-31T02:03:55;5.65;;;3.75;;
59516;SDS011;45342;42.662;27.718;2023-03-31T02:06:26;6.05;;;3.95;;
59516;SDS011;45342;42.662;27.718;2023-03-31T02:13:56;5.03;;;3.35;;
59516;SDS011;45342;42.662;27.718;2023-03-31T02:16:24;6.45;;;3.70;;
59516;SDS011;45342;42.662;27.718;2023-03-31T02:18:53;5.28;;;3.60;;
59516;SDS011;45342;42.662;27.718;2023-03-31T02:21:27;5.95;;;3.78;;
59516;SDS011;45342;42.662;27.718;2023-03-31T02:23:54;5.13;;;3.83;;
59516;SDS011;45342;42.662;27.718;2023-03-31T02:26:22;5.75;;;3.70;;
59516;SDS011;45342;42.662;27.718;2023-03-31T02:28:51;5.32;;;3.50;;
59516;SDS011;45342;42.662;27.718;2023-03-31T02:34:18;5.53;;;3.38;;
59516;SDS011;45342;42.662;27.718;2023-03-31T02:36:44;4.63;;;3.58;;
59516;SDS011;45342;42.662;27.718;2023-03-31T02:39:14;4.50;;;3.40;;
59516;SDS011;45342;42.662;27.718;2023-03-31T02:41:43;6.40;;;3.85;;
59516;SDS011;45342;42.662;27.718;2023-03-31T02:44:09;5.65;;;3.88;;
59516;SDS011;45342;42.662;27.718;2023-03-31T02:46:37;5.60;;;3.60;;
59516;SDS011;45342;42.662;27.718;2023-03-31T02:49:05;5.72;;;3.83;;
59516;SDS011;45342;42.662;27.718;2023-03-31T02:51:39;4.78;;;3.55;;
59516;SDS011;45342;42.662;27.718;2023-03-31T02:54:38;5.30;;;3.33;;
59516;SDS011;45342;42.662;27.718;2023-03-31T02:57:19;5.18;;;3.63;;
59516;SDS011;45342;42.662;27.718;2023-03-31T03:12:57;4.70;;;3.70;;
59516;SDS011;45342;42.662;27.718;2023-03-31T03:15:43;5.18;;;3.80;;
59516;SDS011;45342;42.662;27.718;2023-03-31T03:18:11;5.40;;;3.65;;
59516;SDS011;45342;42.662;27.718;2023-03-31T03:20:37;4.70;;;3.60;;
59516;SDS011;45342;42.662;27.718;2023-03-31T03:23:03;5.72;;;3.47;;
59516;SDS011;45342;42.662;27.718;2023-03-31T03:25:29;6.15;;;3.75;;
59516;SDS011;45342;42.662;27.718;2023-03-31T03:27:56;6.78;;;4.00;;
59516;SDS011;45342;42.662;27.718;2023-03-31T03:30:22;5.68;;;3.53;;
59516;SDS011;45342;42.662;27.718;2023-03-31T03:32:50;5.68;;;3.85;;
59516;SDS011;45342;42.662;27.718;2023-03-31T03:35:17;7.03;;;3.47;;
59516;SDS011;45342;42.662;27.718;2023-03-31T03:37:43;5.30;;;3.72;;
59516;SDS011;45342;42.662;27.718;2023-03-31T03:40:09;4.95;;;3.45;;
59516;SDS011;45342;42.662;27.718;2023-03-31T03:42:36;5.60;;;3.63;;
59516;SDS011;45342;42.662;27.718;2023-03-31T03:45:02;5.72;;;4.15;;
59516;SDS011;45342;42.662;27.718;2023-03-31T03:47:28;5.85;;;3.53;;
59516;SDS011;45342;42.662;27.718;2023-03-31T03:49:55;6.35;;;3.85;;
59516;SDS011;45342;42.662;27.718;2023-03-31T03:52:24;4.75;;;3.60;;
59516;SDS011;45342;42.662;27.718;2023-03-31T03:54:50;4.93;;;3.55;;
59516;SDS011;45342;42.662;27.718;2023-03-31T03:57:15;5.18;;;3.67;;
59516;SDS011;45342;42.662;27.718;2023-03-31T03:59:42;5.07;;;3.70;;
59516;SDS011;45342;42.662;27.718;2023-03-31T04:02:08;7.03;;;3.80;;
59516;SDS011;45342;42.662;27.718;2023-03-31T04:04:34;6.07;;;3.70;;
59516;SDS011;45342;42.662;27.718;2023-03-31T04:07:04;6.30;;;3.50;;
59516;SDS011;45342;42.662;27.718;2023-03-31T04:09:29;5.88;;;3.80;;
59516;SDS011;45342;42.662;27.718;2023-03-31T04:11:57;6.65;;;3.70;;
59516;SDS011;45342;42.662;27.718;2023-03-31T04:14:25;5.75;;;3.88;;
59516;SDS011;45342;42.662;27.718;2023-03-31T04:16:51;5.03;;;3.70;;
59516;SDS011;45342;42.662;27.718;2023-03-31T04:19:20;4.25;;;3.42;;
59516;SDS011;45342;42.662;27.718;2023-03-31T04:21:51;5.35;;;3.88;;
59516;SDS011;45342;42.662;27.718;2023-03-31T04:26:57;4.97;;;3.40;;
59516;SDS011;45342;42.662;27.718;2023-03-31T04:29:23;4.82;;;3.50;;
59516;SDS011;45342;42.662;27.718;2023-03-31T04:31:51;5.75;;;3.90;;
59516;SDS011;45342;42.662;27.718;2023-03-31T04:34:18;6.03;;;3.92;;
59516;SDS011;45342;42.662;27.718;2023-03-31T04:36:46;4.68;;;3.58;;
59516;SDS011;45342;42.662;27.718;2023-03-31T04:39:13;4.78;;;3.70;;
59516;SDS011;45342;42.662;27.718;2023-03-31T04:41:42;7.25;;;4.10;;
59516;SDS011;45342;42.662;27.718;2023-03-31T04:44:07;6.10;;;3.88;;
59516;SDS011;45342;42.662;27.718;2023-03-31T04:46:33;6.38;;;4.13;;
59516;SDS011;45342;42.662;27.718;2023-03-31T04:51:25;8.55;;;4.43;;
59516;SDS011;45342;42.662;27.718;2023-03-31T04:56:18;5.57;;;3.97;;
59516;SDS011;45342;42.662;27.718;2023-03-31T04:58:44;18.05;;;4.82;;
59516;SDS011;45342;42.662;27.718;2023-03-31T05:01:10;7.10;;;4.00;;
59516;SDS011;45342;42.662;27.718;2023-03-31T05:03:42;7.30;;;4.15;;
59516;SDS011;45342;42.662;27.718;2023-03-31T05:06:08;6.80;;;4.30;;
59516;SDS011;45342;42.662;27.718;2023-03-31T05:08:35;5.93;;;4.47;;
59516;SDS011;45342;42.662;27.718;2023-03-31T05:11:01;5.70;;;4.00;;
59516;SDS011;45342;42.662;27.718;2023-03-31T05:13:27;7.32;;;4.50;;
59516;SDS011;45342;42.662;27.718;2023-03-31T05:15:53;6.18;;;4.35;;
59516;SDS011;45342;42.662;27.718;2023-03-31T05:18:18;8.60;;;5.20;;
59516;SDS011;45342;42.662;27.718;2023-03-31T05:20:44;8.68;;;4.80;;
59516;SDS011;45342;42.662;27.718;2023-03-31T05:23:10;9.23;;;4.85;;
59516;SDS011;45342;42.662;27.718;2023-03-31T05:25:36;7.38;;;4.82;;
59516;SDS011;45342;42.662;27.718;2023-03-31T05:28:01;6.90;;;4.22;;
59516;SDS011;45342;42.662;27.718;2023-03-31T05:33:00;7.72;;;4.60;;
59516;SDS011;45342;42.662;27.718;2023-03-31T05:35:26;8.18;;;4.82;;
59516;SDS011;45342;42.662;27.718;2023-03-31T05:37:52;8.73;;;4.47;;
59516;SDS011;45342;42.662;27.718;2023-03-31T05:40:17;5.72;;;4.32;;
59516;SDS011;45342;42.662;27.718;2023-03-31T05:42:45;6.32;;;4.40;;
59516;SDS011;45342;42.662;27.718;2023-03-31T05:45:13;6.78;;;4.38;;
59516;SDS011;45342;42.662;27.718;2023-03-31T05:47:39;6.90;;;4.55;;
59516;SDS011;45342;42.662;27.718;2023-03-31T05:50:05;6.53;;;4.22;;
59516;SDS011;45342;42.662;27.718;2023-03-31T05:52:33;6.30;;;4.50;;
59516;SDS011;45342;42.662;27.718;2023-03-31T05:57:25;6.00;;;4.43;;
59516;SDS011;45342;42.662;27.718;2023-03-31T05:59:51;5.57;;;4.10;;
59516;SDS011;45342;42.662;27.718;2023-03-31T06:04:48;6.88;;;4.40;;
59516;SDS011;45342;42.662;27.718;2023-03-31T06:09:46;6.20;;;4.15;;
59516;SDS011;45342;42.662;27.718;2023-03-31T06:12:13;6.35;;;4.13;;
59516;SDS011;45342;42.662;27.718;2023-03-31T06:17:11;8.23;;;4.43;;
59516;SDS011;45342;42.662;27.718;2023-03-31T06:19:38;6.13;;;4.30;;
59516;SDS011;45342;42.662;27.718;2023-03-31T06:22:06;8.73;;;5.35;;
59516;SDS011;45342;42.662;27.718;2023-03-31T06:24:32;5.22;;;4.00;;
59516;SDS011;45342;42.662;27.718;2023-03-31T06:26:58;6.97;;;4.85;;
59516;SDS011;45342;42.662;27.718;2023-03-31T06:29:25;7.85;;;4.68;;
59516;SDS011;45342;42.662;27.718;2023-03-31T06:31:52;6.82;;;4.63;;
59516;SDS011;45342;42.662;27.718;2023-03-31T06:34:18;6.97;;;5.05;;
59516;SDS011;45342;42.662;27.718;2023-03-31T06:36:43;9.02;;;4.78;;
59516;SDS011;45342;42.662;27.718;2023-03-31T06:39:10;8.35;;;4.95;;
59516;SDS011;45342;42.662;27.718;2023-03-31T06:41:37;6.95;;;4.65;;
59516;SDS011;45342;42.662;27.718;2023-03-31T06:44:03;7.57;;;4.75;;
59516;SDS011;45342;42.662;27.718;2023-03-31T06:46:31;6.75;;;4.47;;
59516;SDS011;45342;42.662;27.718;2023-03-31T06:48:57;6.47;;;4.53;;
59516;SDS011;45342;42.662;27.718;2023-03-31T06:51:23;5.82;;;4.50;;
59516;SDS011;45342;42.662;27.718;2023-03-31T06:53:49;7.70;;;4.43;;
59516;SDS011;45342;42.662;27.718;2023-03-31T06:56:16;7.20;;;4.70;;
59516;SDS011;45342;42.662;27.718;2023-03-31T06:58:43;5.78;;;4.15;;
59516;SDS011;45342;42.662;27.718;2023-03-31T07:01:08;6.20;;;4.43;;
59516;SDS011;45342;42.662;27.718;2023-03-31T07:03:35;6.63;;;4.53;;
59516;SDS011;45342;42.662;27.718;2023-03-31T07:06:01;6.85;;;4.40;;
59516;SDS011;45342;42.662;27.718;2023-03-31T07:08:27;7.18;;;4.43;;
59516;SDS011;45342;42.662;27.718;2023-03-31T07:10:55;6.93;;;4.47;;
59516;SDS011;45342;42.662;27.718;2023-03-31T07:13:22;6.88;;;4.65;;
59516;SDS011;45342;42.662;27.718;2023-03-31T07:15:48;6.85;;;4.50;;
59516;SDS011;45342;42.662;27.718;2023-03-31T07:18:15;5.80;;;4.32;;
59516;SDS011;45342;42.662;27.718;2023-03-31T07:20:42;7.03;;;4.32;;
59516;SDS011;45342;42.662;27.718;2023-03-31T07:25:34;7.18;;;4.28;;
59516;SDS011;45342;42.662;27.718;2023-03-31T07:30:26;7.40;;;4.40;;
59516;SDS011;45342;42.662;27.718;2023-03-31T07:32:53;8.23;;;4.65;;
59516;SDS011;45342;42.662;27.718;2023-03-31T07:37:47;7.40;;;4.82;;
59516;SDS011;45342;42.662;27.718;2023-03-31T07:40:15;6.97;;;4.65;;
59516;SDS011;45342;42.662;27.718;2023-03-31T07:42:43;6.43;;;4.78;;
59516;SDS011;45342;42.662;27.718;2023-03-31T07:45:12;6.93;;;4.93;;
59516;SDS011;45342;42.662;27.718;2023-03-31T07:47:37;7.88;;;4.72;;
59516;SDS011;45342;42.662;27.718;2023-03-31T07:50:04;6.70;;;4.85;;
59516;SDS011;45342;42.662;27.718;2023-03-31T07:52:31;9.05;;;5.32;;
59516;SDS011;45342;42.662;27.718;2023-03-31T07:54:58;7.25;;;4.68;;
59516;SDS011;45342;42.662;27.718;2023-03-31T07:57:26;6.70;;;4.97;;
59516;SDS011;45342;42.662;27.718;2023-03-31T08:02:20;7.75;;;5.28;;
59516;SDS011;45342;42.662;27.718;2023-03-31T08:07:16;9.27;;;5.53;;
59516;SDS011;45342;42.662;27.718;2023-03-31T08:15:00;10.70;;;5.47;;
59516;SDS011;45342;42.662;27.718;2023-03-31T08:17:26;11.05;;;5.57;;
59516;SDS011;45342;42.662;27.718;2023-03-31T08:19:54;7.78;;;5.22;;
59516;SDS011;45342;42.662;27.718;2023-03-31T08:22:33;7.97;;;5.25;;
59516;SDS011;45342;42.662;27.718;2023-03-31T08:24:59;9.57;;;5.40;;
59516;SDS011;45342;42.662;27.718;2023-03-31T08:27:27;8.90;;;5.68;;
59516;SDS011;45342;42.662;27.718;2023-03-31T08:29:54;8.35;;;5.60;;
59516;SDS011;45342;42.662;27.718;2023-03-31T08:32:26;8.77;;;5.43;;
59516;SDS011;45342;42.662;27.718;2023-03-31T08:37:21;9.25;;;6.07;;
59516;SDS011;45342;42.662;27.718;2023-03-31T08:47:57;8.70;;;5.93;;
59516;SDS011;45342;42.662;27.718;2023-03-31T08:50:26;10.27;;;6.13;;
59516;SDS011;45342;42.662;27.718;2023-03-31T08:58:31;8.13;;;5.60;;
59516;SDS011;45342;42.662;27.718;2023-03-31T09:07:18;8.85;;;5.72;;
59516;SDS011;45342;42.662;27.718;2023-03-31T09:12:09;10.05;;;6.57;;
59516;SDS011;45342;42.662;27.718;2023-03-31T09:14:43;9.65;;;6.13;;
59516;SDS011;45342;42.662;27.718;2023-03-31T09:19:55;8.10;;;5.72;;
59516;SDS011;45342;42.662;27.718;2023-03-31T09:22:26;8.80;;;6.20;;
59516;SDS011;45342;42.662;27.718;2023-03-31T09:27:46;9.80;;;6.15;;
59516;SDS011;45342;42.662;27.718;2023-03-31T09:30:14;9.15;;;5.57;;
59516;SDS011;45342;42.662;27.718;2023-03-31T09:35:26;9.20;;;6.00;;
59516;SDS011;45342;42.662;27.718;2023-03-31T09:40:26;7.38;;;5.57;;
59516;SDS011;45342;42.662;27.718;2023-03-31T09:43:02;8.25;;;6.05;;
59516;SDS011;45342;42.662;27.718;2023-03-31T09:45:30;7.90;;;5.80;;
59516;SDS011;45342;42.662;27.718;2023-03-31T09:48:01;8.65;;;5.63;;
59516;SDS011;45342;42.662;27.718;2023-03-31T09:53:37;9.18;;;5.85;;
59516;SDS011;45342;42.662;27.718;2023-03-31T09:56:05;9.27;;;6.38;;
59516;SDS011;45342;42.662;27.718;2023-03-31T10:03:57;9.40;;;6.10;;
59516;SDS011;45342;42.662;27.718;2023-03-31T10:06:23;9.45;;;6.50;;
59516;SDS011;45342;42.662;27.718;2023-03-31T10:11:24;8.77;;;6.07;;
59516;SDS011;45342;42.662;27.718;2023-03-31T10:13:58;9.55;;;6.32;;
59516;SDS011;45342;42.662;27.718;2023-03-31T10:16:31;8.75;;;6.68;;
59516;SDS011;45342;42.662;27.718;2023-03-31T10:21:59;8.82;;;5.90;;
59516;SDS011;45342;42.662;27.718;2023-03-31T10:25:06;9.02;;;6.13;;
59516;SDS011;45342;42.662;27.718;2023-03-31T10:27:34;8.50;;;5.90;;
59516;SDS011;45342;42.662;27.718;2023-03-31T10:32:42;9.23;;;5.95;;
59516;SDS011;45342;42.662;27.718;2023-03-31T10:35:25;9.70;;;5.82;;
59516;SDS011;45342;42.662;27.718;2023-03-31T10:38:02;8.63;;;6.05;;
59516;SDS011;45342;42.662;27.718;2023-03-31T10:40:30;9.43;;;6.00;;
59516;SDS011;45342;42.662;27.718;2023-03-31T10:45:48;8.18;;;5.93;;
59516;SDS011;45342;42.662;27.718;2023-03-31T10:48:27;8.75;;;6.00;;
59516;SDS011;45342;42.662;27.718;2023-03-31T10:53:28;10.05;;;6.80;;
59516;SDS011;45342;42.662;27.718;2023-03-31T10:56:08;10.57;;;6.65;;
59516;SDS011;45342;42.662;27.718;2023-03-31T11:11:11;7.72;;;5.65;;
59516;SDS011;45342;42.662;27.718;2023-03-31T11:17:28;9.48;;;5.63;;
59516;SDS011;45342;42.662;27.718;2023-03-31T11:25:10;10.05;;;5.78;;
59516;SDS011;45342;42.662;27.718;2023-03-31T11:38:54;9.90;;;5.65;;
59516;SDS011;45342;42.662;27.718;2023-03-31T11:41:46;8.93;;;5.10;;
59516;SDS011;45342;42.662;27.718;2023-03-31T11:44:15;10.45;;;5.20;;
59516;SDS011;45342;42.662;27.718;2023-03-31T11:49:32;9.90;;;5.47;;
59516;SDS011;45342;42.662;27.718;2023-03-31T11:52:19;11.77;;;5.80;;
59516;SDS011;45342;42.662;27.718;2023-03-31T11:57:26;11.02;;;5.65;;
59516;SDS011;45342;42.662;27.718;2023-03-31T11:59:57;12.18;;;5.20;;
59516;SDS011;45342;42.662;27.718;2023-03-31T12:02:45;9.85;;;5.10;;
59516;SDS011;45342;42.662;27.718;2023-03-31T12:05:16;10.35;;;5.40;;
59516;SDS011;45342;42.662;27.718;2023-03-31T12:08:30;11.15;;;5.28;;
59516;SDS011;45342;42.662;27.718;2023-03-31T12:10:33;11.60;;;5.10;;
59516;SDS011;45342;42.662;27.718;2023-03-31T12:15:56;9.88;;;5.45;;
59516;SDS011;45342;42.662;27.718;2023-03-31T12:18:25;9.80;;;5.57;;
59516;SDS011;45342;42.662;27.718;2023-03-31T12:20:56;9.43;;;5.38;;
59516;SDS011;45342;42.662;27.718;2023-03-31T12:23:30;12.70;;;5.55;;
59516;SDS011;45342;42.662;27.718;2023-03-31T12:26:06;8.05;;;5.57;;
59516;SDS011;45342;42.662;27.718;2023-03-31T12:28:38;8.13;;;5.07;;
59516;SDS011;45342;42.662;27.718;2023-03-31T12:31:06;11.32;;;5.38;;
59516;SDS011;45342;42.662;27.718;2023-03-31T12:33:36;11.15;;;5.15;;
59516;SDS011;45342;42.662;27.718;2023-03-31T12:43:58;8.60;;;5.05;;
59516;SDS011;45342;42.662;27.718;2023-03-31T12:57:14;8.20;;;4.60;;
59516;SDS011;45342;42.662;27.718;2023-03-31T12:59:45;10.15;;;4.63;;
59516;SDS011;45342;42.662;27.718;2023-03-31T13:04:40;9.15;;;5.20;;
59516;SDS011;45342;42.662;27.718;2023-03-31T13:12:13;9.23;;;4.57;;
59516;SDS011;45342;42.662;27.718;2023-03-31T13:14:45;8.57;;;4.72;;
59516;SDS011;45342;42.662;27.718;2023-03-31T13:19:43;9.50;;;4.70;;
59516;SDS011;45342;42.662;27.718;2023-03-31T13:30:46;9.02;;;5.20;;
59516;SDS011;45342;42.662;27.718;2023-03-31T13:33:50;11.50;;;5.93;;
59516;SDS011;45342;42.662;27.718;2023-03-31T13:39:23;11.80;;;5.35;;
59516;SDS011;45342;42.662;27.718;2023-03-31T13:47:22;11.63;;;5.88;;
59516;SDS011;45342;42.662;27.718;2023-03-31T13:58:24;8.63;;;5.22;;
59516;SDS011;45342;42.662;27.718;2023-03-31T14:01:19;14.13;;;5.93;;
59516;SDS011;45342;42.662;27.718;2023-03-31T14:04:06;10.32;;;5.60;;
59516;SDS011;45342;42.662;27.718;2023-03-31T14:06:53;11.15;;;6.07;;
59516;SDS011;45342;42.662;27.718;2023-03-31T14:11:51;12.63;;;5.90;;
59516;SDS011;45342;42.662;27.718;2023-03-31T14:14:17;11.98;;;6.00;;
59516;SDS011;45342;42.662;27.718;2023-03-31T14:19:30;12.52;;;5.47;;
59516;SDS011;45342;42.662;27.718;2023-03-31T14:22:06;13.80;;;5.70;;
59516;SDS011;45342;42.662;27.718;2023-03-31T14:24:49;10.70;;;5.70;;
59516;SDS011;45342;42.662;27.718;2023-03-31T14:27:41;10.55;;;5.45;;
59516;SDS011;45342;42.662;27.718;2023-03-31T14:33:08;12.20;;;5.57;;
59516;SDS011;45342;42.662;27.718;2023-03-31T14:35:44;11.52;;;5.55;;
59516;SDS011;45342;42.662;27.718;2023-03-31T14:38:33;9.38;;;5.32;;
59516;SDS011;45342;42.662;27.718;2023-03-31T14:41:02;10.02;;;5.20;;
59516;SDS011;45342;42.662;27.718;2023-03-31T14:45:58;9.02;;;5.68;;
59516;SDS011;45342;42.662;27.718;2023-03-31T14:48:25;7.30;;;4.78;;
59516;SDS011;45342;42.662;27.718;2023-03-31T14:50:55;9.85;;;5.22;;
59516;SDS011;45342;42.662;27.718;2023-03-31T14:53:23;8.07;;;5.20;;
59516;SDS011;45342;42.662;27.718;2023-03-31T14:55:50;8.77;;;5.10;;
59516;SDS011;45342;42.662;27.718;2023-03-31T14:58:28;8.20;;;5.03;;
59516;SDS011;45342;42.662;27.718;2023-03-31T15:00:56;9.82;;;4.90;;
59516;SDS011;45342;42.662;27.718;2023-03-31T15:03:23;10.45;;;5.05;;
59516;SDS011;45342;42.662;27.718;2023-03-31T15:05:49;8.73;;;4.90;;
59516;SDS011;45342;42.662;27.718;2023-03-31T15:08:17;9.35;;;5.57;;
59516;SDS011;45342;42.662;27.718;2023-03-31T15:10:47;9.30;;;5.20;;
59516;SDS011;45342;42.662;27.718;2023-03-31T15:13:18;9.48;;;5.25;;
59516;SDS011;45342;42.662;27.718;2023-03-31T15:18:55;11.23;;;5.68;;
59516;SDS011;45342;42.662;27.718;2023-03-31T15:21:23;10.15;;;5.57;;
59516;SDS011;45342;42.662;27.718;2023-03-31T15:23:50;11.07;;;5.38;;
59516;SDS011;45342;42.662;27.718;2023-03-31T15:26:17;13.90;;;5.22;;
59516;SDS011;45342;42.662;27.718;2023-03-31T15:28:51;7.45;;;4.82;;
59516;SDS011;45342;42.662;27.718;2023-03-31T15:31:20;11.15;;;5.70;;
59516;SDS011;45342;42.662;27.718;2023-03-31T15:33:46;7.70;;;5.25;;
59516;SDS011;45342;42.662;27.718;2023-03-31T15:36:12;10.48;;;5.95;;
59516;SDS011;45342;42.662;27.718;2023-03-31T15:38:37;14.23;;;5.93;;
59516;SDS011;45342;42.662;27.718;2023-03-31T15:41:03;10.43;;;5.80;;
59516;SDS011;45342;42.662;27.718;2023-03-31T15:46:48;10.10;;;5.40;;
59516;SDS011;45342;42.662;27.718;2023-03-31T15:49:04;8.10;;;5.45;;
59516;SDS011;45342;42.662;27.718;2023-03-31T15:51:39;12.07;;;6.38;;
59516;SDS011;45342;42.662;27.718;2023-03-31T15:54:40;13.97;;;6.33;;
59516;SDS011;45342;42.662;27.718;2023-03-31T15:57:31;11.35;;;5.97;;
59516;SDS011;45342;42.662;27.718;2023-03-31T15:59:58;10.48;;;6.18;;
59516;SDS011;45342;42.662;27.718;2023-03-31T16:02:26;10.40;;;5.45;;
59516;SDS011;45342;42.662;27.718;2023-03-31T16:05:01;8.55;;;5.45;;
59516;SDS011;45342;42.662;27.718;2023-03-31T16:07:29;10.15;;;5.90;;
59516;SDS011;45342;42.662;27.718;2023-03-31T16:10:06;10.43;;;5.88;;
59516;SDS011;45342;42.662;27.718;2023-03-31T16:12:41;12.48;;;5.88;;
59516;SDS011;45342;42.662;27.718;2023-03-31T16:15:43;9.63;;;6.15;;
59516;SDS011;45342;42.662;27.718;2023-03-31T16:18:31;7.20;;;4.68;;
59516;SDS011;45342;42.662;27.718;2023-03-31T16:21:00;8.95;;;5.35;;
59516;SDS011;45342;42.662;27.718;2023-03-31T16:23:28;7.82;;;5.05;;
59516;SDS011;45342;42.662;27.718;2023-03-31T16:25:55;6.82;;;5.10;;
59516;SDS011;45342;42.662;27.718;2023-03-31T16:28:22;11.52;;;5.93;;
59516;SDS011;45342;42.662;27.718;2023-03-31T16:31:26;10.55;;;5.72;;
59516;SDS011;45342;42.662;27.718;2023-03-31T16:34:06;9.25;;;5.18;;
59516;SDS011;45342;42.662;27.718;2023-03-31T16:36:33;9.32;;;5.32;;
59516;SDS011;45342;42.662;27.718;2023-03-31T16:38:59;9.48;;;5.07;;
59516;SDS011;45342;42.662;27.718;2023-03-31T16:41:27;10.65;;;5.80;;
59516;SDS011;45342;42.662;27.718;2023-03-31T16:43:53;8.73;;;5.32;;
59516;SDS011;45342;42.662;27.718;2023-03-31T16:46:20;8.77;;;5.40;;
59516;SDS011;45342;42.662;27.718;2023-03-31T16:48:46;8.48;;;5.18;;
59516;SDS011;45342;42.662;27.718;2023-03-31T16:51:12;9.23;;;5.78;;
59516;SDS011;45342;42.662;27.718;2023-03-31T16:53:38;10.13;;;5.80;;
59516;SDS011;45342;42.662;27.718;2023-03-31T16:56:04;9.93;;;5.82;;
59516;SDS011;45342;42.662;27.718;2023-03-31T16:58:32;9.52;;;5.80;;
59516;SDS011;45342;42.662;27.718;2023-03-31T17:00:58;9.80;;;5.50;;
59516;SDS011;45342;42.662;27.718;2023-03-31T17:03:24;8.82;;;5.30;;
59516;SDS011;45342;42.662;27.718;2023-03-31T17:05:52;8.88;;;5.60;;
59516;SDS011;45342;42.662;27.718;2023-03-31T17:11:42;12.85;;;6.63;;
59516;SDS011;45342;42.662;27.718;2023-03-31T17:14:07;10.77;;;6.93;;
59516;SDS011;45342;42.662;27.718;2023-03-31T17:16:35;10.98;;;6.07;;
59516;SDS011;45342;42.662;27.718;2023-03-31T17:19:01;11.38;;;6.05;;
59516;SDS011;45342;42.662;27.718;2023-03-31T17:21:44;9.80;;;5.78;;
59516;SDS011;45342;42.662;27.718;2023-03-31T17:24:15;9.82;;;6.20;;
59516;SDS011;45342;42.662;27.718;2023-03-31T17:26:41;9.07;;;5.85;;
59516;SDS011;45342;42.662;27.718;2023-03-31T17:29:06;8.90;;;5.68;;
59516;SDS011;45342;42.662;27.718;2023-03-31T17:31:32;8.13;;;5.88;;
59516;SDS011;45342;42.662;27.718;2023-03-31T17:33:57;10.70;;;7.10;;
59516;SDS011;45342;42.662;27.718;2023-03-31T17:37:32;9.55;;;6.47;;
59516;SDS011;45342;42.662;27.718;2023-03-31T17:39:58;10.27;;;6.50;;
59516;SDS011;45342;42.662;27.718;2023-03-31T17:42:24;10.32;;;6.18;;
59516;SDS011;45342;42.662;27.718;2023-03-31T17:44:50;13.02;;;6.20;;
59516;SDS011;45342;42.662;27.718;2023-03-31T17:47:18;9.52;;;6.50;;
59516;SDS011;45342;42.662;27.718;2023-03-31T17:49:46;9.60;;;6.68;;
59516;SDS011;45342;42.662;27.718;2023-03-31T17:52:12;10.38;;;6.20;;
59516;SDS011;45342;42.662;27.718;2023-03-31T17:54:41;9.43;;;6.93;;
59516;SDS011;45342;42.662;27.718;2023-03-31T17:57:07;10.23;;;6.20;;
59516;SDS011;45342;42.662;27.718;2023-03-31T17:59:33;9.70;;;6.38;;
59516;SDS011;45342;42.662;27.718;2023-03-31T18:01:59;8.88;;;6.28;;
59516;SDS011;45342;42.662;27.718;2023-03-31T18:04:25;11.32;;;6.70;;
59516;SDS011;45342;42.662;27.718;2023-03-31T18:09:26;10.10;;;6.40;;
59516;SDS011;45342;42.662;27.718;2023-03-31T18:11:52;10.02;;;6.13;;
59516;SDS011;45342;42.662;27.718;2023-03-31T18:14:17;10.52;;;6.68;;
59516;SDS011;45342;42.662;27.718;2023-03-31T18:16:43;10.00;;;6.03;;
59516;SDS011;45342;42.662;27.718;2023-03-31T18:19:09;8.50;;;6.10;;
59516;SDS011;45342;42.662;27.718;2023-03-31T18:21:35;13.18;;;7.30;;
59516;SDS011;45342;42.662;27.718;2023-03-31T18:24:01;9.48;;;5.97;;
59516;SDS011;45342;42.662;27.718;2023-03-31T18:26:26;10.75;;;6.40;;
59516;SDS011;45342;42.662;27.718;2023-03-31T18:28:52;9.70;;;6.57;;
59516;SDS011;45342;42.662;27.718;2023-03-31T18:31:18;8.63;;;6.22;;
59516;SDS011;45342;42.662;27.718;2023-03-31T18:33:45;10.13;;;6.50;;
59516;SDS011;45342;42.662;27.718;2023-03-31T18:36:15;8.93;;;6.20;;
59516;SDS011;45342;42.662;27.718;2023-03-31T18:38:42;10.70;;;6.25;;
59516;SDS011;45342;42.662;27.718;2023-03-31T18:41:08;9.02;;;6.43;;
59516;SDS011;45342;42.662;27.718;2023-03-31T18:43:34;11.70;;;6.78;;
59516;SDS011;45342;42.662;27.718;2023-03-31T18:45:59;10.73;;;6.47;;
59516;SDS011;45342;42.662;27.718;2023-03-31T18:48:25;9.85;;;6.28;;
59516;SDS011;45342;42.662;27.718;2023-03-31T18:50:52;8.88;;;6.30;;
59516;SDS011;45342;42.662;27.718;2023-03-31T18:55:51;10.15;;;6.57;;
59516;SDS011;45342;42.662;27.718;2023-03-31T18:58:18;11.13;;;6.32;;
59516;SDS011;45342;42.662;27.718;2023-03-31T19:00:44;11.38;;;6.50;;
59516;SDS011;45342;42.662;27.718;2023-03-31T19:03:11;8.00;;;6.15;;
59516;SDS011;45342;42.662;27.718;2023-03-31T19:05:37;9.68;;;6.53;;
59516;SDS011;45342;42.662;27.718;2023-03-31T19:08:04;9.60;;;6.60;;
59516;SDS011;45342;42.662;27.718;2023-03-31T19:10:32;9.82;;;6.32;;
59516;SDS011;45342;42.662;27.718;2023-03-31T19:12:58;8.73;;;6.15;;
59516;SDS011;45342;42.662;27.718;2023-03-31T19:15:24;9.85;;;6.75;;
59516;SDS011;45342;42.662;27.718;2023-03-31T19:17:50;9.50;;;6.57;;
59516;SDS011;45342;42.662;27.718;2023-03-31T19:20:16;10.55;;;6.75;;
59516;SDS011;45342;42.662;27.718;2023-03-31T19:22:46;9.52;;;6.28;;
59516;SDS011;45342;42.662;27.718;2023-03-31T19:25:18;8.98;;;6.15;;